TAF and METAR

Could not understand the following METAR

EFIV 171050Z AUTO 21008KT 170V230 9999 VCSH BKN012 //////CB 15/12 Q1008
No TAF available for Ivalo Airport